createdAt,value
2022-11-01T00:02:01.937Z,8.77
2022-11-01T00:05:06.571Z,8.57
2022-11-01T00:08:10.633Z,8.50
2022-11-01T00:11:18.462Z,9.47
2022-11-01T00:14:22.862Z,9.17
2022-11-01T00:17:26.895Z,9.63
2022-11-01T00:20:30.939Z,8.63
2022-11-01T00:23:34.959Z,8.70
2022-11-01T00:26:40.605Z,8.83
2022-11-01T00:29:44.694Z,8.63
2022-11-01T00:32:48.900Z,8.43
2022-11-01T00:35:53.179Z,9.03
2022-11-01T00:38:57.265Z,8.90
2022-11-01T00:42:02.875Z,8.47
2022-11-01T00:45:07.814Z,9.53
2022-11-01T00:48:11.930Z,8.23
2022-11-01T00:51:15.979Z,8.23
2022-11-01T00:54:20.143Z,8.37
2022-11-01T00:57:25.805Z,7.60
2022-11-01T01:00:29.894Z,8.20
2022-11-01T01:03:34.092Z,8.13
2022-11-01T01:06:38.017Z,8.77
2022-11-01T01:09:42.153Z,7.33
2022-11-01T01:12:47.701Z,8.47
2022-11-01T01:15:51.687Z,8.23
2022-11-01T01:18:56.384Z,7.33
2022-11-01T01:22:01.418Z,7.50
2022-11-01T01:25:05.935Z,6.63
2022-11-01T01:28:11.510Z,5.77
2022-11-01T01:31:16.072Z,5.80
2022-11-01T01:34:20.762Z,6.40
2022-11-01T01:37:24.802Z,6.87
2022-11-01T01:40:28.854Z,6.00
2022-11-01T01:43:44.704Z,6.77
2022-11-01T01:46:48.805Z,6.67
2022-11-01T01:49:57.173Z,6.93
2022-11-01T01:53:07.152Z,7.20
2022-11-01T01:56:14.137Z,6.70
2022-11-01T01:59:19.792Z,7.07
2022-11-01T02:02:24.011Z,6.93
2022-11-01T02:05:39.684Z,7.83
2022-11-01T02:08:46.445Z,7.53
2022-11-01T02:11:50.375Z,6.87
2022-11-01T02:14:56.200Z,7.47
2022-11-01T02:18:11.910Z,7.20
2022-11-01T02:21:52.463Z,6.33
2022-11-01T02:25:25.814Z,7.40
2022-11-01T02:28:49.119Z,7.27
2022-11-01T02:32:13.378Z,7.23
2022-11-01T02:35:25.324Z,7.07
2022-11-01T02:38:36.761Z,7.23
2022-11-01T02:41:46.847Z,7.30
2022-11-01T02:44:56.998Z,7.33
2022-11-01T02:48:04.044Z,7.23
2022-11-01T02:51:08.593Z,7.03
2022-11-01T02:54:22.412Z,7.43
2022-11-01T02:57:32.904Z,6.80
2022-11-01T03:00:38.875Z,6.13
2022-11-01T03:03:47.490Z,7.20
2022-11-01T03:06:56.002Z,6.67
2022-11-01T03:10:00.596Z,6.17
2022-11-01T03:13:15.194Z,6.07
2022-11-01T03:16:24.602Z,6.03
2022-11-01T03:19:40.208Z,6.70
2022-11-01T03:22:48.810Z,6.80
2022-11-01T03:25:57.573Z,6.50
2022-11-01T03:29:05.642Z,6.57
2022-11-01T03:32:11.253Z,6.30
2022-11-01T03:35:20.358Z,6.77
2022-11-01T03:38:31.994Z,6.67
2022-11-01T03:41:41.064Z,6.83
2022-11-01T03:44:48.873Z,6.37
2022-11-01T03:47:53.077Z,6.10
2022-11-01T03:50:58.691Z,6.60
2022-11-01T03:54:02.576Z,6.10
2022-11-01T03:57:06.643Z,6.00
2022-11-01T04:00:12.325Z,5.50
2022-11-01T04:03:16.410Z,6.10
2022-11-01T04:06:22.083Z,6.53
2022-11-01T04:09:26.201Z,5.53
2022-11-01T04:12:30.233Z,6.07
2022-11-01T04:15:51.404Z,5.63
2022-11-01T04:19:12.769Z,5.80
2022-11-01T04:22:20.697Z,5.77
2022-11-01T04:25:27.797Z,6.00
2022-11-01T04:28:32.073Z,6.30
2022-11-01T04:31:38.340Z,6.13
2022-11-01T04:34:45.463Z,6.20
2022-11-01T04:37:57.509Z,5.70
2022-11-01T04:41:01.718Z,6.47
2022-11-01T04:44:06.088Z,6.13
2022-11-01T04:47:10.395Z,6.47
2022-11-01T04:50:14.595Z,6.23
2022-11-01T04:53:20.377Z,6.30
2022-11-01T04:56:24.467Z,5.60
2022-11-01T04:59:28.685Z,6.20
2022-11-01T05:02:32.855Z,6.23
2022-11-01T05:05:38.316Z,6.53
2022-11-01T05:08:44.078Z,6.00
2022-11-01T05:11:48.450Z,6.07
2022-11-01T05:14:56.689Z,6.07
2022-11-01T05:18:02.225Z,6.07
2022-11-01T05:21:06.465Z,6.57
2022-11-01T05:24:12.125Z,5.87
2022-11-01T05:27:16.444Z,5.70
2022-11-01T05:30:20.575Z,6.00
2022-11-01T05:33:24.812Z,6.20
2022-11-01T05:36:28.950Z,6.07
2022-11-01T05:39:34.638Z,6.13
2022-11-01T05:42:40.629Z,6.43
2022-11-01T05:45:44.879Z,6.47
2022-11-01T05:48:49.036Z,6.80
2022-11-01T05:51:53.145Z,6.67
2022-11-01T05:54:59.095Z,6.97
2022-11-01T05:58:03.309Z,6.77
2022-11-01T06:01:09.377Z,7.17
2022-11-01T06:04:13.692Z,7.03
2022-11-01T06:07:18.447Z,6.47
2022-11-01T06:10:24.058Z,7.63
2022-11-01T06:13:28.308Z,7.43
2022-11-01T06:16:32.475Z,7.70
2022-11-01T06:19:36.816Z,7.50
2022-11-01T06:22:41.375Z,7.70
2022-11-01T06:25:47.278Z,8.13
2022-11-01T06:28:51.375Z,8.40
2022-11-01T06:31:55.588Z,8.60
2022-11-01T06:34:59.738Z,8.30
2022-11-01T06:38:05.047Z,8.30
2022-11-01T06:41:10.860Z,7.80
2022-11-01T06:44:15.059Z,8.10
2022-11-01T06:47:19.318Z,8.63
2022-11-01T06:50:23.515Z,8.57
2022-11-01T06:53:27.819Z,8.03
2022-11-01T06:56:33.429Z,8.03
2022-11-01T06:59:37.639Z,7.87
2022-11-01T07:02:41.874Z,7.80
2022-11-01T07:05:46.095Z,7.97
2022-11-01T07:08:50.205Z,7.80
2022-11-01T07:11:55.908Z,8.23
2022-11-01T07:15:00.199Z,7.27
2022-11-01T07:18:06.794Z,7.88
2022-11-01T07:21:11.583Z,7.60
2022-11-01T07:24:15.970Z,7.78
2022-11-01T07:27:21.736Z,6.88
2022-11-01T07:30:26.425Z,7.93
2022-11-01T07:33:30.695Z,6.85
2022-11-01T07:36:35.162Z,7.80
2022-11-01T07:39:39.538Z,8.10
2022-11-01T07:42:50.045Z,7.32
2022-11-01T07:45:54.266Z,7.72
2022-11-01T07:49:00.766Z,7.90
2022-11-01T07:52:05.625Z,8.50
2022-11-01T07:55:10.966Z,8.25
2022-11-01T07:58:17.800Z,6.50
2022-11-01T08:01:24.896Z,4.47
2022-11-01T08:04:33.589Z,4.05
2022-11-01T08:07:40.459Z,4.85
2022-11-01T08:10:46.831Z,4.75
2022-11-01T08:13:52.637Z,4.72
2022-11-01T08:17:02.021Z,5.28
2022-11-01T08:20:14.046Z,4.82
2022-11-01T08:23:19.034Z,4.47
2022-11-01T08:26:24.072Z,4.60
2022-11-01T08:29:32.769Z,4.35
2022-11-01T08:32:40.880Z,4.20
2022-11-01T08:35:50.691Z,4.43
2022-11-01T08:38:58.803Z,4.38
2022-11-01T08:42:06.056Z,4.72
2022-11-01T08:45:12.455Z,4.78
2022-11-01T08:48:21.681Z,4.55
2022-11-01T08:54:44.923Z,4.38
2022-11-01T08:57:49.758Z,4.85
2022-11-01T09:01:06.322Z,4.95
2022-11-01T09:04:21.666Z,4.88
2022-11-01T09:07:30.289Z,4.68
2022-11-01T09:10:34.574Z,4.88
2022-11-01T09:13:38.889Z,4.55
2022-11-01T09:16:44.650Z,4.72
2022-11-01T09:19:48.928Z,4.97
2022-11-01T09:22:53.786Z,4.60
2022-11-01T09:26:04.217Z,4.75
2022-11-01T09:29:08.767Z,5.13
2022-11-01T09:32:14.507Z,5.13
2022-11-01T09:35:19.159Z,4.22
2022-11-01T09:38:23.373Z,4.78
2022-11-01T09:41:34.861Z,4.85
2022-11-01T09:44:46.243Z,3.88
2022-11-01T09:47:55.200Z,4.32
2022-11-01T09:51:01.134Z,4.88
2022-11-01T09:54:07.840Z,4.72
2022-11-01T09:57:19.880Z,4.25
2022-11-01T10:00:24.284Z,4.78
2022-11-01T10:03:42.375Z,4.55
2022-11-01T10:06:53.774Z,4.20
2022-11-01T10:10:06.903Z,4.72
2022-11-01T10:13:36.942Z,5.30
2022-11-01T10:16:43.033Z,5.53
2022-11-01T10:19:51.533Z,5.45
2022-11-01T10:22:55.761Z,4.90
2022-11-01T10:25:59.846Z,5.57
2022-11-01T10:29:09.376Z,6.28
2022-11-01T10:32:24.669Z,5.47
2022-11-01T10:35:35.669Z,5.72
2022-11-01T10:42:11.454Z,4.85
2022-11-01T10:45:20.948Z,6.40
2022-11-01T10:48:32.240Z,5.78
2022-11-01T10:51:38.461Z,5.57
2022-11-01T10:54:45.271Z,5.88
2022-11-01T10:57:54.594Z,5.82
2022-11-01T11:00:59.039Z,5.30
2022-11-01T11:04:06.488Z,5.18
2022-11-01T11:07:19.917Z,4.45
2022-11-01T11:10:30.714Z,4.30
2022-11-01T11:13:36.879Z,3.85
2022-11-01T11:16:46.163Z,4.50
2022-11-01T11:19:54.043Z,4.70
2022-11-01T11:23:04.561Z,5.18
2022-11-01T11:26:16.776Z,4.75
2022-11-01T11:29:37.434Z,4.93
2022-11-01T11:32:49.819Z,4.05
2022-11-01T11:36:01.500Z,4.03
2022-11-01T11:39:07.730Z,5.13
2022-11-01T11:42:16.572Z,3.78
2022-11-01T11:45:24.722Z,4.53
2022-11-01T11:48:29.064Z,3.55
2022-11-01T11:51:37.853Z,4.20
2022-11-01T11:54:45.280Z,4.32
2022-11-01T11:57:53.804Z,3.70
2022-11-01T12:01:04.573Z,4.40
2022-11-01T12:04:11.366Z,4.50
2022-11-01T12:07:33.510Z,4.25
2022-11-01T12:10:41.410Z,4.32
2022-11-01T12:13:49.394Z,4.20
2022-11-01T12:16:53.741Z,4.88
2022-11-01T12:20:10.030Z,4.60
2022-11-01T12:23:18.890Z,3.75
2022-11-01T12:26:26.001Z,4.10
2022-11-01T12:29:35.301Z,3.75
2022-11-01T12:32:49.152Z,3.60
2022-11-01T12:35:56.104Z,3.80
2022-11-01T12:39:09.614Z,4.03
2022-11-01T12:42:21.425Z,4.30
2022-11-01T12:45:32.243Z,4.28
2022-11-01T12:48:42.310Z,4.28
2022-11-01T12:51:50.454Z,4.15
2022-11-01T12:55:05.771Z,3.42
2022-11-01T12:58:16.266Z,3.42
2022-11-01T13:01:31.125Z,3.67
2022-11-01T13:04:39.162Z,3.90
2022-11-01T13:07:57.544Z,4.45
2022-11-01T13:11:15.350Z,3.72
2022-11-01T13:14:38.181Z,3.60
2022-11-01T13:17:49.959Z,3.70
2022-11-01T13:21:00.020Z,4.25
2022-11-01T13:24:12.590Z,4.05
2022-11-01T13:27:22.934Z,4.18
2022-11-01T13:30:28.780Z,4.18
2022-11-01T13:33:41.140Z,4.55
2022-11-01T13:36:50.160Z,3.90
2022-11-01T13:40:10.194Z,4.50
2022-11-01T13:43:17.340Z,4.13
2022-11-01T13:46:59.334Z,3.92
2022-11-01T13:50:32.944Z,3.70
2022-11-01T13:53:43.694Z,3.70
2022-11-01T13:56:56.591Z,3.65
2022-11-01T14:00:02.585Z,4.60
2022-11-01T14:03:23.319Z,4.53
2022-11-01T14:06:31.606Z,4.18
2022-11-01T14:09:45.301Z,3.63
2022-11-01T14:13:17.203Z,4.43
2022-11-01T14:16:23.211Z,3.72
2022-11-01T14:19:27.657Z,4.05
2022-11-01T14:22:33.865Z,5.32
2022-11-01T14:25:38.030Z,4.90
2022-11-01T14:28:46.790Z,5.00
2022-11-01T14:31:54.095Z,5.03
2022-11-01T14:35:10.019Z,4.50
2022-11-01T14:38:16.231Z,5.68
2022-11-01T14:41:21.832Z,5.18
2022-11-01T14:44:33.713Z,5.15
2022-11-01T14:47:43.770Z,6.93
2022-11-01T14:50:54.072Z,6.63
2022-11-01T14:54:03.670Z,6.60
2022-11-01T14:57:21.993Z,7.00
2022-11-01T15:00:32.520Z,7.03
2022-11-01T15:03:36.643Z,6.85
2022-11-01T15:06:45.082Z,7.60
2022-11-01T15:10:00.591Z,7.03
2022-11-01T15:13:05.121Z,11.02
2022-11-01T15:16:16.136Z,28.40
2022-11-01T15:19:28.800Z,10.10
2022-11-01T15:22:34.921Z,8.25
2022-11-01T15:25:41.231Z,8.10
2022-11-01T15:28:51.530Z,9.73
2022-11-01T15:32:00.374Z,25.30
2022-11-01T15:35:18.140Z,11.77
2022-11-01T15:38:22.531Z,13.10
2022-11-01T15:41:29.673Z,10.07
2022-11-01T15:44:34.044Z,12.68
2022-11-01T15:47:45.639Z,13.38
2022-11-01T15:50:53.673Z,9.70
2022-11-01T15:54:03.420Z,12.25
2022-11-01T15:57:15.021Z,10.45
2022-11-01T16:00:22.543Z,10.07
2022-11-01T16:03:32.460Z,9.18
2022-11-01T16:06:42.355Z,13.88
2022-11-01T16:09:49.003Z,13.13
2022-11-01T16:12:54.454Z,10.73
2022-11-01T16:16:06.700Z,8.88
2022-11-01T16:19:31.073Z,9.30
2022-11-01T16:22:38.286Z,13.25
2022-11-01T16:25:42.953Z,11.07
2022-11-01T16:28:48.041Z,12.27
2022-11-01T16:32:09.766Z,11.35
2022-11-01T16:35:32.972Z,10.18
2022-11-01T16:38:45.229Z,9.40
2022-11-01T16:41:49.955Z,9.77
2022-11-01T16:44:57.216Z,12.48
2022-11-01T16:48:01.760Z,10.68
2022-11-01T16:51:08.091Z,11.77
2022-11-01T16:54:12.902Z,12.68
2022-11-01T16:57:25.594Z,12.95
2022-11-01T17:00:29.866Z,14.57
2022-11-01T17:03:34.201Z,11.95
2022-11-01T17:06:39.860Z,12.57
2022-11-01T17:09:44.320Z,12.60
2022-11-01T17:12:48.921Z,14.20
2022-11-01T17:15:54.494Z,14.52
2022-11-01T17:19:00.435Z,17.08
2022-11-01T17:22:10.434Z,14.00
2022-11-01T17:25:20.459Z,12.38
2022-11-01T17:28:25.522Z,16.52
2022-11-01T17:31:30.761Z,14.23
2022-11-01T17:34:35.094Z,15.15
2022-11-01T17:37:41.505Z,14.38
2022-11-01T17:40:47.043Z,14.88
2022-11-01T17:43:51.353Z,14.68
2022-11-01T17:46:55.713Z,15.30
2022-11-01T17:50:00.144Z,14.65
2022-11-01T17:53:06.173Z,15.50
2022-11-01T17:56:16.021Z,15.63
2022-11-01T17:59:20.500Z,16.85
2022-11-01T18:02:24.845Z,16.58
2022-11-01T18:05:29.201Z,17.40
2022-11-01T18:08:36.396Z,18.00
2022-11-01T18:11:47.701Z,19.70
2022-11-01T18:14:59.514Z,19.73
2022-11-01T18:18:22.810Z,20.15
2022-11-01T18:21:33.896Z,19.95
2022-11-01T18:24:46.841Z,24.08
2022-11-01T18:27:51.594Z,22.95
2022-11-01T18:30:58.516Z,23.92
2022-11-01T18:34:09.361Z,22.03
2022-11-01T18:37:23.412Z,23.23
2022-11-01T18:40:36.426Z,23.33
2022-11-01T18:43:40.680Z,24.60
2022-11-01T18:46:51.566Z,24.60
2022-11-01T18:50:05.635Z,25.27
2022-11-01T18:53:15.844Z,26.40
2022-11-01T18:56:25.619Z,27.83
2022-11-01T18:59:33.106Z,29.58
2022-11-01T19:02:37.309Z,25.65
2022-11-01T19:05:43.097Z,23.27
2022-11-01T19:08:53.347Z,22.42
2022-11-01T19:12:03.994Z,22.67
2022-11-01T19:15:22.453Z,23.15
2022-11-01T19:18:27.247Z,22.63
2022-11-01T19:21:37.544Z,22.25
2022-11-01T19:24:41.815Z,20.50
2022-11-01T19:27:48.331Z,20.47
2022-11-01T19:30:54.006Z,21.83
2022-11-01T19:34:00.921Z,18.23
2022-11-01T19:37:16.644Z,19.60
2022-11-01T19:40:30.185Z,18.40
2022-11-01T19:43:35.897Z,16.53
2022-11-01T19:46:40.221Z,13.87
2022-11-01T19:49:45.193Z,13.33
2022-11-01T19:52:49.864Z,12.50
2022-11-01T19:55:56.582Z,11.03
2022-11-01T19:59:05.139Z,10.10
2022-11-01T20:02:18.866Z,10.53
2022-11-01T20:05:30.151Z,11.03
2022-11-01T20:08:35.711Z,10.70
2022-11-01T20:11:40.201Z,10.17
2022-11-01T20:14:46.121Z,10.30
2022-11-01T20:17:50.960Z,9.67
2022-11-01T20:20:56.247Z,9.90
2022-11-01T20:24:04.264Z,8.97
2022-11-01T20:27:09.029Z,9.60
2022-11-01T20:30:17.735Z,9.70
2022-11-01T20:33:22.401Z,8.57
2022-11-01T20:36:26.713Z,8.63
2022-11-01T20:39:30.922Z,8.37
2022-11-01T20:42:44.334Z,7.53
2022-11-01T20:45:50.092Z,8.20
2022-11-01T20:48:54.549Z,7.97
2022-11-01T20:52:13.451Z,8.93
2022-11-01T20:55:23.301Z,10.87
2022-11-01T20:58:29.202Z,12.10
2022-11-01T21:01:34.966Z,12.00
2022-11-01T21:04:40.236Z,13.23
2022-11-01T21:07:47.845Z,12.47
2022-11-01T21:10:57.874Z,13.13
2022-11-01T21:14:02.662Z,13.20
2022-11-01T21:17:18.583Z,13.87
2022-11-01T21:20:25.700Z,14.47
2022-11-01T21:23:34.964Z,14.83
2022-11-01T21:26:42.343Z,15.27
2022-11-01T21:29:49.096Z,13.87
2022-11-01T21:32:54.816Z,14.23
2022-11-01T21:35:59.116Z,13.53
2022-11-01T21:39:05.007Z,13.07
2022-11-01T21:42:30.186Z,12.50
2022-11-01T21:45:35.134Z,12.63
2022-11-01T21:48:40.916Z,12.73
2022-11-01T21:51:45.015Z,13.03
2022-11-01T21:54:50.143Z,13.17
2022-11-01T21:57:54.256Z,12.90
2022-11-01T22:00:58.830Z,13.47
2022-11-01T22:04:04.768Z,13.20
2022-11-01T22:07:10.416Z,13.23
2022-11-01T22:10:15.366Z,13.47
2022-11-01T22:13:21.305Z,13.40
2022-11-01T22:16:25.638Z,13.07
2022-11-01T22:19:31.388Z,12.43
2022-11-01T22:22:35.766Z,15.33
2022-11-01T22:25:41.931Z,13.70
2022-11-01T22:28:46.166Z,13.43
2022-11-01T22:31:50.366Z,13.03
2022-11-01T22:34:56.268Z,13.43
2022-11-01T22:38:03.116Z,12.93
2022-11-01T22:41:13.567Z,14.20
2022-11-01T22:44:20.607Z,12.63
2022-11-01T22:47:32.047Z,13.50
2022-11-01T22:50:38.796Z,13.70
2022-11-01T22:53:43.244Z,13.33
2022-11-01T22:56:47.653Z,13.23
2022-11-01T22:59:54.023Z,13.50
2022-11-01T23:03:04.283Z,12.13
2022-11-01T23:06:34.645Z,12.90
2022-11-01T23:09:40.894Z,13.53
2022-11-01T23:13:02.280Z,13.60
2022-11-01T23:16:18.777Z,11.93
2022-11-01T23:19:22.953Z,12.37
2022-11-01T23:22:33.233Z,12.27
2022-11-01T23:25:37.344Z,12.93
2022-11-01T23:28:43.506Z,12.33
2022-11-01T23:31:47.483Z,11.80
2022-11-01T23:34:52.045Z,12.13
2022-11-01T23:37:59.934Z,12.87
2022-11-01T23:41:04.863Z,11.03
2022-11-01T23:44:20.855Z,12.57
2022-11-01T23:47:28.303Z,11.13
2022-11-01T23:50:35.954Z,10.47
2022-11-01T23:53:47.108Z,11.07
2022-11-01T23:56:51.147Z,9.97
2022-11-01T23:59:55.343Z,10.00
